createdAt,value
2019-05-18T00:02:05.621Z,94228.23
2019-05-18T00:04:35.560Z,94227.27
2019-05-18T00:07:05.617Z,94227.79
2019-05-18T00:09:35.519Z,94222.56
2019-05-18T00:12:05.543Z,94225.88
2019-05-18T00:14:35.518Z,94224.91
2019-05-18T00:17:07.965Z,94222.78
2019-05-18T00:19:37.289Z,94226.39
2019-05-18T00:22:07.369Z,94227.05
2019-05-18T00:24:37.338Z,94223.47
2019-05-18T00:27:07.414Z,94225.92
2019-05-18T00:29:37.377Z,94226.08
2019-05-18T00:32:07.470Z,94225.29
2019-05-18T00:34:37.509Z,94223.65
2019-05-18T00:37:07.583Z,94217.79
2019-05-18T00:39:37.557Z,94221.37
2019-05-18T00:42:07.630Z,94219.09
2019-05-18T00:44:37.607Z,94217.64
2019-05-18T00:47:07.629Z,94219.42
2019-05-18T00:49:37.593Z,94213.08
2019-05-18T00:52:07.603Z,94209.31
2019-05-18T00:54:37.641Z,94209.83
2019-05-18T00:57:08.355Z,94209.52
2019-05-18T00:59:38.325Z,94211.30
2019-05-18T01:02:08.408Z,94210.97
2019-05-18T01:04:38.305Z,94202.99
2019-05-18T01:07:08.313Z,94206.91
2019-05-18T01:09:38.214Z,94208.87
2019-05-18T01:12:08.290Z,94208.55
2019-05-18T01:14:38.194Z,94212.12
2019-05-18T01:17:08.198Z,94208.87
2019-05-18T01:19:38.184Z,94208.87
2019-05-18T01:22:08.197Z,94209.53
2019-05-18T01:24:38.186Z,94208.23
2019-05-18T01:27:08.184Z,94206.28
2019-05-18T01:29:38.081Z,94202.21
2019-05-18T01:32:08.092Z,94204.18
2019-05-18T01:34:38.205Z,94206.94
2019-05-18T01:37:08.262Z,94205.33
2019-05-18T01:39:38.239Z,94203.69
2019-05-18T01:42:08.241Z,94206.14
2019-05-18T01:44:38.325Z,94203.38
2019-05-18T01:47:08.300Z,94198.48
2019-05-18T01:49:38.248Z,94201.27
2019-05-18T01:52:08.208Z,94195.08
2019-05-18T01:54:38.150Z,94188.40
2019-05-18T01:57:08.123Z,94186.13
2019-05-18T01:59:38.052Z,94191.50
2019-05-18T02:02:08.034Z,94190.34
2019-05-18T02:04:38.040Z,94197.53
2019-05-18T02:07:08.091Z,94194.42
2019-05-18T02:09:38.162Z,94190.84
2019-05-18T02:12:08.137Z,94189.86
2019-05-18T02:14:38.145Z,94190.19
2019-05-18T02:17:08.121Z,94184.63
2019-05-18T02:19:38.121Z,94185.12
2019-05-18T02:22:08.202Z,94185.45
2019-05-18T02:24:39.557Z,94184.81
2019-05-18T02:27:09.535Z,94178.44
2019-05-18T02:29:39.475Z,94181.53
2019-05-18T02:32:09.451Z,94182.67
2019-05-18T02:34:39.383Z,94179.91
2019-05-18T02:37:09.357Z,94181.73
2019-05-18T02:39:39.351Z,94180.09
2019-05-18T02:42:09.309Z,94174.71
2019-05-18T02:44:39.309Z,94176.50
2019-05-18T02:47:09.287Z,94173.55
2019-05-18T02:49:39.277Z,94178.63
2019-05-18T02:52:09.248Z,94185.95
2019-05-18T02:54:39.261Z,94181.23
2019-05-18T02:57:09.273Z,94182.86
2019-05-18T02:59:39.242Z,94176.67
2019-05-18T03:02:09.222Z,94173.41
2019-05-18T03:04:39.227Z,94170.95
2019-05-18T03:07:09.230Z,94170.16
2019-05-18T03:09:39.205Z,94172.43
2019-05-18T03:12:09.278Z,94171.95
2019-05-18T03:14:39.240Z,94179.44
2019-05-18T03:17:09.252Z,94175.53
2019-05-18T03:19:39.224Z,94180.89
2019-05-18T03:22:09.222Z,94181.38
2019-05-18T03:24:39.226Z,94179.42
2019-05-18T03:27:09.209Z,94184.96
2019-05-18T03:29:39.200Z,94179.44
2019-05-18T03:32:09.169Z,94176.16
2019-05-18T03:34:39.166Z,94177.80
2019-05-18T03:37:09.129Z,94179.27
2019-05-18T03:39:39.764Z,94182.69
2019-05-18T03:42:09.712Z,94181.88
2019-05-18T03:44:39.653Z,94181.05
2019-05-18T03:47:09.545Z,94186.75
2019-05-18T03:49:39.492Z,94185.64
2019-05-18T03:52:10.595Z,94184.33
2019-05-18T03:54:40.607Z,94185.44
2019-05-18T03:57:10.594Z,94190.83
2019-05-18T03:59:40.578Z,94193.92
2019-05-18T04:02:10.701Z,94198.83
2019-05-18T04:04:40.797Z,94189.19
2019-05-18T04:07:10.836Z,94194.08
2019-05-18T04:09:40.843Z,94202.58
2019-05-18T04:12:10.914Z,94202.08
2019-05-18T04:14:40.958Z,94201.75
2019-05-18T04:17:10.939Z,94206.61
2019-05-18T04:19:46.784Z,94210.38
2019-05-18T04:22:12.620Z,94212.70
2019-05-18T04:24:42.622Z,94208.77
2019-05-18T04:27:12.629Z,94210.71
2019-05-18T04:29:42.606Z,94208.11
2019-05-18T04:32:12.613Z,94215.44
2019-05-18T04:34:42.589Z,94210.71
2019-05-18T04:37:12.600Z,94215.92
2019-05-18T04:39:42.575Z,94217.56
2019-05-18T04:42:12.594Z,94227.36
2019-05-18T04:44:42.497Z,94225.84
2019-05-18T04:47:12.580Z,94227.83
2019-05-18T04:49:42.564Z,94224.41
2019-05-18T04:52:12.556Z,94222.30
2019-05-18T04:54:42.738Z,94221.48
2019-05-18T04:57:12.669Z,94224.09
2019-05-18T04:59:42.578Z,94220.94
2019-05-18T05:02:12.603Z,94220.57
2019-05-18T05:04:42.554Z,94215.30
2019-05-18T05:07:12.498Z,94219.02
2019-05-18T05:09:42.398Z,94226.78
2019-05-18T05:12:12.412Z,94225.73
2019-05-18T05:14:42.319Z,94222.22
2019-05-18T05:17:12.345Z,94224.27
2019-05-18T05:19:42.334Z,94225.99
2019-05-18T05:22:12.238Z,94232.58
2019-05-18T05:24:42.250Z,94225.63
2019-05-18T05:27:12.331Z,94226.63
2019-05-18T05:29:42.309Z,94226.69
2019-05-18T05:32:12.323Z,94222.77
2019-05-18T05:34:42.221Z,94226.90
2019-05-18T05:37:12.234Z,94226.93
2019-05-18T05:39:42.216Z,94230.12
2019-05-18T05:42:12.223Z,94225.58
2019-05-18T05:44:42.200Z,94225.63
2019-05-18T05:47:12.141Z,94228.74
2019-05-18T05:49:42.117Z,94236.34
2019-05-18T05:52:12.127Z,94236.17
2019-05-18T05:54:42.101Z,94236.08
2019-05-18T05:57:12.185Z,94236.30
2019-05-18T05:59:42.193Z,94239.43
2019-05-18T06:02:12.171Z,94238.30
2019-05-18T06:04:42.193Z,94236.19
2019-05-18T06:07:12.158Z,94230.16
2019-05-18T06:09:42.098Z,94231.64
2019-05-18T06:12:12.084Z,94239.52
2019-05-18T06:14:42.134Z,94238.28
2019-05-18T06:17:12.082Z,94235.16
2019-05-18T06:19:42.089Z,94236.84
2019-05-18T06:22:12.067Z,94233.57
2019-05-18T06:24:42.069Z,94236.55
2019-05-18T06:27:12.046Z,94229.80
2019-05-18T06:29:42.057Z,94235.20
2019-05-18T06:32:12.035Z,94241.06
2019-05-18T06:34:42.046Z,94238.08
2019-05-18T06:37:12.141Z,94239.13
2019-05-18T06:39:42.120Z,94235.09
2019-05-18T06:42:12.244Z,94231.79
2019-05-18T06:44:42.159Z,94230.66
2019-05-18T06:47:12.100Z,94238.51
2019-05-18T06:49:42.077Z,94237.48
2019-05-18T06:52:12.100Z,94242.58
2019-05-18T06:54:43.046Z,94234.80
2019-05-18T06:57:15.427Z,94236.15
2019-05-18T06:59:46.362Z,94234.45
2019-05-18T07:02:16.370Z,94234.84
2019-05-18T07:04:46.340Z,94236.69
2019-05-18T07:07:16.348Z,94231.56
2019-05-18T07:09:46.206Z,94230.87
2019-05-18T07:12:16.174Z,94233.81
2019-05-18T07:14:46.264Z,94233.12
2019-05-18T07:17:16.269Z,94231.70
2019-05-18T07:19:46.240Z,94231.51
2019-05-18T07:22:16.254Z,94230.19
2019-05-18T07:24:46.172Z,94229.89
2019-05-18T07:27:16.170Z,94235.59
2019-05-18T07:29:46.154Z,94229.81
2019-05-18T07:32:16.159Z,94234.22
2019-05-18T07:34:46.204Z,94228.11
2019-05-18T07:37:16.210Z,94228.11
2019-05-18T07:39:46.188Z,94229.30
2019-05-18T07:42:16.213Z,94220.43
2019-05-18T07:44:46.121Z,94218.42
2019-05-18T07:47:16.184Z,94219.56
2019-05-18T07:49:46.170Z,94218.13
2019-05-18T07:52:17.329Z,94217.30
2019-05-18T07:54:47.819Z,94213.92
2019-05-18T07:57:17.760Z,94222.03
2019-05-18T07:59:47.661Z,94221.95
2019-05-18T08:02:17.609Z,94216.53
2019-05-18T08:04:47.658Z,94218.30
2019-05-18T08:07:17.656Z,94221.27
2019-05-18T08:09:47.633Z,94217.41
2019-05-18T08:12:17.637Z,94212.20
2019-05-18T08:14:47.687Z,94213.86
2019-05-18T08:17:17.765Z,94212.77
2019-05-18T08:19:47.676Z,94209.48
2019-05-18T08:22:17.690Z,94216.39
2019-05-18T08:24:47.589Z,94218.23
2019-05-18T08:27:17.664Z,94211.23
2019-05-18T08:29:47.633Z,94208.11
2019-05-18T08:32:17.637Z,94211.28
2019-05-18T08:34:47.609Z,94220.98
2019-05-18T08:37:18.582Z,94218.30
2019-05-18T08:39:48.556Z,94218.45
2019-05-18T08:42:18.633Z,94213.22
2019-05-18T08:44:48.607Z,94215.72
2019-05-18T08:47:18.568Z,94211.36
2019-05-18T08:49:48.461Z,94211.98
2019-05-18T08:52:18.534Z,94207.71
2019-05-18T08:54:48.437Z,94207.48
2019-05-18T08:57:18.456Z,94206.91
2019-05-18T08:59:48.436Z,94206.91
2019-05-18T09:02:18.446Z,94208.92
2019-05-18T09:04:48.470Z,94202.74
2019-05-18T09:07:18.435Z,94196.48
2019-05-18T09:09:48.452Z,94203.38
2019-05-18T09:12:18.453Z,94198.38
2019-05-18T09:14:48.458Z,94205.15
2019-05-18T09:17:18.431Z,94196.88
2019-05-18T09:19:48.441Z,94196.78
2019-05-18T09:22:23.095Z,94199.17
2019-05-18T09:24:50.832Z,94196.55
2019-05-18T09:27:20.804Z,94195.14
2019-05-18T09:29:50.814Z,94191.28
2019-05-18T09:32:20.786Z,94195.02
2019-05-18T09:34:50.803Z,94198.69
2019-05-18T09:37:20.774Z,94197.73
2019-05-18T09:39:50.818Z,94193.34
2019-05-18T09:42:20.857Z,94197.64
2019-05-18T09:44:50.880Z,94191.20
2019-05-18T09:47:20.851Z,94189.91
2019-05-18T09:49:50.930Z,94192.78
2019-05-18T09:52:20.938Z,94195.67
2019-05-18T09:54:50.834Z,94196.95
2019-05-18T09:57:20.910Z,94192.31
2019-05-18T09:59:50.814Z,94189.27
2019-05-18T10:02:20.830Z,94191.87
2019-05-18T10:04:50.837Z,94188.08
2019-05-18T10:07:20.841Z,94190.90
2019-05-18T10:09:50.827Z,94189.21
2019-05-18T10:12:20.885Z,94184.45
2019-05-18T10:14:50.854Z,94192.55
2019-05-18T10:17:20.870Z,94191.25
2019-05-18T10:19:50.845Z,94185.41
2019-05-18T10:22:20.787Z,94187.75
2019-05-18T10:24:50.756Z,94184.90
2019-05-18T10:29:49.732Z,94177.13
2019-05-18T10:32:19.702Z,94179.88
2019-05-18T10:34:49.642Z,94178.37
2019-05-18T10:37:19.617Z,94178.94
2019-05-18T10:39:49.562Z,94184.52
2019-05-18T10:42:19.626Z,94185.55
2019-05-18T10:44:49.644Z,94186.54
2019-05-18T10:47:19.619Z,94178.98
2019-05-18T10:49:49.699Z,94183.14
2019-05-18T10:52:19.685Z,94179.95
2019-05-18T10:54:49.694Z,94174.70
2019-05-18T10:57:19.669Z,94174.36
2019-05-18T10:59:49.610Z,94174.49
2019-05-18T11:02:19.658Z,94172.59
2019-05-18T11:04:49.668Z,94168.16
2019-05-18T11:07:19.638Z,94163.41
2019-05-18T11:09:49.649Z,94166.69
2019-05-18T11:12:19.623Z,94163.83
2019-05-18T11:14:49.636Z,94160.39
2019-05-18T11:17:19.606Z,94157.59
2019-05-18T11:19:49.614Z,94157.81
2019-05-18T11:22:19.628Z,94156.28
2019-05-18T11:24:49.606Z,94151.69
2019-05-18T11:27:19.629Z,94153.39
2019-05-18T11:29:49.610Z,94146.77
2019-05-18T11:32:19.623Z,94147.03
2019-05-18T11:34:49.678Z,94142.03
2019-05-18T11:37:19.670Z,94143.61
2019-05-18T11:39:49.774Z,94144.02
2019-05-18T11:42:19.823Z,94147.44
2019-05-18T11:44:49.768Z,94149.44
2019-05-18T11:47:19.794Z,94142.80
2019-05-18T11:49:49.783Z,94149.73
2019-05-18T11:52:19.817Z,94146.63
2019-05-18T11:54:49.826Z,94146.43
2019-05-18T11:57:19.829Z,94138.34
2019-05-18T11:59:49.806Z,94137.69
2019-05-18T12:02:19.815Z,94140.23
2019-05-18T12:04:49.895Z,94136.25
2019-05-18T12:07:20.947Z,94139.00
2019-05-18T12:09:51.019Z,94140.02
2019-05-18T12:12:21.044Z,94143.61
2019-05-18T12:14:51.006Z,94139.14
2019-05-18T12:17:20.939Z,94136.36
2019-05-18T12:19:50.912Z,94127.84
2019-05-18T12:22:20.840Z,94123.63
2019-05-18T12:24:50.811Z,94138.10
2019-05-18T12:27:20.844Z,94127.73
2019-05-18T12:29:50.747Z,94133.19
2019-05-18T12:32:20.755Z,94129.03
2019-05-18T12:34:50.735Z,94133.21
2019-05-18T12:37:23.450Z,94125.14
2019-05-18T12:39:53.825Z,94118.60
2019-05-18T12:42:23.855Z,94119.94
2019-05-18T12:44:53.898Z,94116.64
2019-05-18T12:47:23.985Z,94114.67
2019-05-18T12:49:54.002Z,94117.00
2019-05-18T12:52:23.973Z,94114.66
2019-05-18T12:54:54.012Z,94114.09
2019-05-18T12:57:24.011Z,94118.83
2019-05-18T12:59:54.088Z,94115.78
2019-05-18T13:02:24.821Z,94109.27
2019-05-18T13:04:54.882Z,94105.37
2019-05-18T13:07:25.343Z,94117.19
2019-05-18T13:09:57.661Z,94112.73
2019-05-18T13:12:27.533Z,94103.38
2019-05-18T13:14:57.541Z,94106.97
2019-05-18T13:17:28.251Z,94108.27
2019-05-18T13:19:58.443Z,94098.88
2019-05-18T13:22:30.476Z,94102.44
2019-05-18T13:25:00.860Z,94099.67
2019-05-18T13:27:39.397Z,94096.58
2019-05-18T13:30:04.296Z,94093.70
2019-05-18T13:32:34.317Z,94094.84
2019-05-18T13:35:06.257Z,94088.38
2019-05-18T13:37:36.253Z,94091.98
2019-05-18T13:40:08.565Z,94091.00
2019-05-18T13:42:38.727Z,94093.55
2019-05-18T13:45:09.997Z,94084.20
2019-05-18T13:47:40.069Z,94087.05
2019-05-18T13:50:12.141Z,94086.23
2019-05-18T13:52:42.118Z,94079.28
2019-05-18T13:55:12.741Z,94082.95
2019-05-18T13:57:42.743Z,94082.05
2019-05-18T14:00:13.564Z,94074.44
2019-05-18T14:02:43.538Z,94080.82
2019-05-18T14:05:14.257Z,94081.05
2019-05-18T14:07:44.226Z,94080.48
2019-05-18T14:10:15.099Z,94072.98
2019-05-18T14:12:46.199Z,94080.70
2019-05-18T14:15:17.225Z,94076.16
2019-05-18T14:17:47.228Z,94073.55
2019-05-18T14:20:17.698Z,94068.82
2019-05-18T14:22:47.720Z,94070.57
2019-05-18T14:25:19.835Z,94068.76
2019-05-18T14:27:49.584Z,94062.87
2019-05-18T14:30:19.844Z,94059.84
2019-05-18T14:32:49.927Z,94063.63
2019-05-18T14:35:19.896Z,94069.38
2019-05-18T14:37:49.980Z,94061.22
2019-05-18T14:40:20.834Z,94058.76
2019-05-18T14:42:50.758Z,94060.61
2019-05-18T14:45:20.836Z,94058.64
2019-05-18T14:47:50.777Z,94064.20
2019-05-18T14:50:21.773Z,94069.38
2019-05-18T14:52:52.040Z,94067.17
2019-05-18T14:55:33.265Z,94068.66
2019-05-18T14:57:53.731Z,94061.98
2019-05-18T15:00:23.721Z,94068.59
2019-05-18T15:02:53.720Z,94062.67
2019-05-18T15:05:23.714Z,94058.70
2019-05-18T15:07:53.670Z,94061.91
2019-05-18T15:10:23.670Z,94061.31
2019-05-18T15:12:53.707Z,94059.87
2019-05-18T15:15:24.776Z,94060.81
2019-05-18T15:17:54.821Z,94059.08
2019-05-18T15:20:24.860Z,94059.24
2019-05-18T15:22:54.870Z,94052.95
2019-05-18T15:25:25.286Z,94047.87
2019-05-18T15:27:55.292Z,94043.59
2019-05-18T15:30:25.389Z,94041.09
2019-05-18T15:32:55.367Z,94041.64
2019-05-18T15:35:25.380Z,94036.72
2019-05-18T15:37:55.320Z,94031.80
2019-05-18T15:40:25.290Z,94030.08
2019-05-18T15:42:55.363Z,94031.45
2019-05-18T15:45:25.406Z,94025.52
2019-05-18T15:47:55.422Z,94029.27
2019-05-18T15:50:25.493Z,94022.69
2019-05-18T15:52:55.506Z,94024.65
2019-05-18T15:55:25.486Z,94026.55
2019-05-18T15:57:55.506Z,94026.80
2019-05-18T16:00:25.588Z,94024.98
2019-05-18T16:02:55.563Z,94024.28
2019-05-18T16:05:25.642Z,94017.56
2019-05-18T16:07:55.610Z,94026.48
2019-05-18T16:10:26.026Z,94020.73
2019-05-18T16:12:56.028Z,94013.86
2019-05-18T16:15:26.019Z,94018.59
2019-05-18T16:17:56.027Z,94025.67
2019-05-18T16:20:26.078Z,94027.13
2019-05-18T16:22:56.174Z,94027.39
2019-05-18T16:25:27.415Z,94021.07
2019-05-18T16:27:57.514Z,94017.00
2019-05-18T16:30:27.494Z,94021.34
2019-05-18T16:32:57.564Z,94019.49
2019-05-18T16:35:28.779Z,94016.64
2019-05-18T16:41:03.975Z,94016.48
2019-05-18T16:43:35.023Z,94014.36
2019-05-18T16:46:04.994Z,94017.07
2019-05-18T16:48:39.303Z,94014.47
2019-05-18T16:51:07.674Z,94014.23
2019-05-18T16:53:37.670Z,94014.45
2019-05-18T16:56:07.672Z,94011.98
2019-05-18T16:58:37.669Z,94008.46
2019-05-18T17:01:07.702Z,94015.09
2019-05-18T17:03:37.720Z,94006.27
2019-05-18T17:06:07.754Z,94010.50
2019-05-18T17:08:37.768Z,94013.59
2019-05-18T17:11:07.845Z,94020.70
2019-05-18T17:13:38.377Z,94020.40
2019-05-18T17:16:08.470Z,94025.24
2019-05-18T17:18:38.913Z,94017.73
2019-05-18T17:21:08.933Z,94015.50
2019-05-18T17:23:38.975Z,94023.81
2019-05-18T17:26:08.989Z,94017.51
2019-05-18T17:28:38.960Z,94018.91
2019-05-18T17:31:09.567Z,94017.86
2019-05-18T17:33:39.562Z,94023.80
2019-05-18T17:36:10.132Z,94018.47
2019-05-18T17:38:40.311Z,94020.84
2019-05-18T17:41:10.244Z,94014.94
2019-05-18T17:43:40.694Z,94021.44
2019-05-18T17:46:10.714Z,94024.33
2019-05-18T17:48:40.749Z,94021.92
2019-05-18T17:51:10.800Z,94024.10
2019-05-18T17:53:41.896Z,94030.63
2019-05-18T17:56:12.055Z,94023.16
2019-05-18T17:58:42.144Z,94025.65
2019-05-18T18:01:12.556Z,94024.03
2019-05-18T18:03:43.177Z,94023.81
2019-05-18T18:06:13.292Z,94023.09
2019-05-18T18:08:44.160Z,94026.84
2019-05-18T18:11:14.913Z,94027.72
2019-05-18T18:13:45.006Z,94034.08
2019-05-18T18:16:16.286Z,94031.48
2019-05-18T18:18:46.319Z,94033.11
2019-05-18T18:21:16.750Z,94038.23
2019-05-18T18:23:54.248Z,94033.47
2019-05-18T18:26:19.195Z,94038.50
2019-05-18T18:28:49.245Z,94039.33
2019-05-18T18:31:19.214Z,94041.97
2019-05-18T18:33:49.997Z,94042.22
2019-05-18T18:36:20.049Z,94045.44
2019-05-18T18:38:49.979Z,94044.02
2019-05-18T18:41:20.423Z,94047.23
2019-05-18T18:43:50.430Z,94046.45
2019-05-18T18:46:20.484Z,94049.74
2019-05-18T18:48:50.481Z,94047.00
2019-05-18T18:51:20.457Z,94049.27
2019-05-18T18:53:50.458Z,94048.33
2019-05-18T18:56:20.430Z,94049.98
2019-05-18T18:58:50.509Z,94054.92
2019-05-18T19:01:20.490Z,94055.31
2019-05-18T19:03:50.501Z,94058.64
2019-05-18T19:06:20.547Z,94060.23
2019-05-18T19:08:51.190Z,94064.52
2019-05-18T19:11:21.910Z,94067.78
2019-05-18T19:13:52.036Z,94067.25
2019-05-18T19:16:22.479Z,94070.52
2019-05-18T19:18:52.607Z,94080.28
2019-05-18T19:21:22.656Z,94080.75
2019-05-18T19:23:53.067Z,94079.89
2019-05-18T19:26:23.076Z,94085.61
2019-05-18T19:28:53.113Z,94086.57
2019-05-18T19:31:24.016Z,94089.35
2019-05-18T19:33:54.133Z,94089.69
2019-05-18T19:36:24.174Z,94087.87
2019-05-18T19:38:54.146Z,94087.79
2019-05-18T19:41:24.813Z,94083.70
2019-05-18T19:43:55.640Z,94088.75
2019-05-18T19:46:26.472Z,94091.58
2019-05-18T19:48:57.398Z,94092.68
2019-05-18T19:51:28.075Z,94090.02
2019-05-18T19:53:58.043Z,94086.30
2019-05-18T19:56:28.810Z,94087.00
2019-05-18T19:58:59.748Z,94092.61
2019-05-18T20:01:30.582Z,94092.85
2019-05-18T20:04:00.812Z,94096.45
2019-05-18T20:06:30.710Z,94094.84
2019-05-18T20:09:01.238Z,94090.11
2019-05-18T20:11:33.348Z,94090.06
2019-05-18T20:14:03.536Z,94089.76
2019-05-18T20:16:34.111Z,94097.20
2019-05-18T20:19:04.263Z,94091.84
2019-05-18T20:21:34.270Z,94089.43
2019-05-18T20:24:04.279Z,94089.16
2019-05-18T20:26:34.309Z,94091.88
2019-05-18T20:29:04.314Z,94088.42
2019-05-18T20:31:34.287Z,94090.59
2019-05-18T20:34:04.962Z,94085.81
2019-05-18T20:36:35.344Z,94092.70
2019-05-18T20:39:06.504Z,94085.55
2019-05-18T20:41:36.563Z,94089.89
2019-05-18T20:44:06.683Z,94085.36
2019-05-18T20:46:36.757Z,94083.72
2019-05-18T20:49:06.798Z,94088.88
2019-05-18T20:51:36.754Z,94084.20
2019-05-18T20:54:07.674Z,94092.78
2019-05-18T20:56:37.729Z,94085.97
2019-05-18T20:59:07.808Z,94086.55
2019-05-18T21:01:37.778Z,94096.14
2019-05-18T21:04:07.798Z,94092.87
2019-05-18T21:06:37.778Z,94090.41
2019-05-18T21:09:07.794Z,94089.91
2019-05-18T21:11:37.760Z,94089.48
2019-05-18T21:14:07.870Z,94089.87
2019-05-18T21:16:37.846Z,94094.02
2019-05-18T21:19:08.662Z,94089.27
2019-05-18T21:21:39.190Z,94088.94
2019-05-18T21:24:09.285Z,94091.84
2019-05-18T21:26:39.604Z,94088.78
2019-05-18T21:29:10.166Z,94081.11
2019-05-18T21:31:40.335Z,94088.88
2019-05-18T21:34:10.338Z,94085.27
2019-05-18T21:36:40.233Z,94083.06
2019-05-18T21:39:10.251Z,94082.31
2019-05-18T21:41:40.301Z,94084.70
2019-05-18T21:44:10.327Z,94083.88
2019-05-18T21:46:40.233Z,94090.91
2019-05-18T21:49:10.247Z,94077.49
2019-05-18T21:51:40.294Z,94077.78
2019-05-18T21:54:10.310Z,94079.04
2019-05-18T21:56:41.192Z,94076.80
2019-05-18T21:59:12.573Z,94073.13
2019-05-18T22:01:43.023Z,94069.91
2019-05-18T22:04:13.120Z,94072.18
2019-05-18T22:06:44.275Z,94069.00
2019-05-18T22:09:15.108Z,94065.32
2019-05-18T22:11:45.174Z,94060.53
2019-05-18T22:14:15.113Z,94062.97
2019-05-18T22:16:45.124Z,94061.54
2019-05-18T22:19:15.142Z,94065.92
2019-05-18T22:21:45.051Z,94064.48
2019-05-18T22:24:15.075Z,94066.05
2019-05-18T22:26:45.145Z,94055.89
2019-05-18T22:29:15.156Z,94059.98
2019-05-18T22:31:45.064Z,94060.92
2019-05-18T22:34:14.995Z,94058.25
2019-05-18T22:36:45.273Z,94057.07
2019-05-18T22:39:15.218Z,94052.20
2019-05-18T22:41:45.193Z,94054.57
2019-05-18T22:44:15.217Z,94054.73
2019-05-18T22:46:45.188Z,94048.11
2019-05-18T22:49:15.397Z,94050.15
2019-05-18T22:51:45.968Z,94049.86
2019-05-18T22:54:16.104Z,94038.05
2019-05-18T22:56:46.088Z,94039.64
2019-05-18T22:59:16.547Z,94032.66
2019-05-18T23:01:46.738Z,94033.22
2019-05-18T23:04:17.327Z,94033.97
2019-05-18T23:06:48.424Z,94030.36
2019-05-18T23:09:18.360Z,94032.34
2019-05-18T23:11:48.354Z,94033.81
2019-05-18T23:14:18.379Z,94032.84
2019-05-18T23:16:48.278Z,94037.74
2019-05-18T23:19:18.286Z,94031.04
2019-05-18T23:21:48.194Z,94030.22
2019-05-18T23:24:18.202Z,94033.91
2019-05-18T23:26:48.245Z,94030.04
2019-05-18T23:29:18.252Z,94033.20
2019-05-18T23:31:48.227Z,94027.38
2019-05-18T23:34:18.305Z,94028.90
2019-05-18T23:36:48.275Z,94027.18
2019-05-18T23:39:18.406Z,94025.09
2019-05-18T23:41:48.434Z,94027.44
2019-05-18T23:44:18.457Z,94019.41
2019-05-18T23:46:48.419Z,94019.78
2019-05-18T23:49:18.438Z,94016.03
2019-05-18T23:51:48.413Z,94018.17
2019-05-18T23:54:18.429Z,94022.47
2019-05-18T23:56:48.403Z,94020.28
2019-05-18T23:59:19.488Z,94014.98
